Terminal Aerodrome Forecast
Issued by NWS

Home | Current Version | Previous Version | Text Only | Print | Product List | Glossary On
Versions: 1 2 3 4 5 6 7 8 9 10 11 12 13 14 15 16
000
FTUS46 KLOX 201100
TAFPRB
TAF
KPRB 201135Z 2012/2112 VRB05KT P6SM OVC004
     FM201700 28010KT P6SM SCT025 BKN150
     FM210400 VRB05KT P6SM SCT030 SCT150
     FM211000 VRB03KT P6SM OVC004=

USA.gov is the U.S. government's official web portal to all federal, state and local government web resources and services.